sensor_id;sensor_type;location;lat;lon;timestamp;temperature;humidity
36280;DHT22;22317;47.936;12.742;2022-10-14T00:00:22;10.10;63.60
36280;DHT22;22317;47.936;12.742;2022-10-14T00:02:48;10.10;63.50
36280;DHT22;22317;47.936;12.742;2022-10-14T00:05:14;10.10;63.50
36280;DHT22;22317;47.936;12.742;2022-10-14T00:07:40;10.10;62.90
36280;DHT22;22317;47.936;12.742;2022-10-14T00:10:06;10.10;62.80
36280;DHT22;22317;47.936;12.742;2022-10-14T00:12:33;10.10;63.40
36280;DHT22;22317;47.936;12.742;2022-10-14T00:14:59;10.10;63.30
36280;DHT22;22317;47.936;12.742;2022-10-14T00:17:25;10.10;62.80
36280;DHT22;22317;47.936;12.742;2022-10-14T00:19:51;10.00;62.70
36280;DHT22;22317;47.936;12.742;2022-10-14T00:22:17;10.00;63.30
36280;DHT22;22317;47.936;12.742;2022-10-14T00:24:43;9.90;63.40
36280;DHT22;22317;47.936;12.742;2022-10-14T00:27:08;9.80;63.80
36280;DHT22;22317;47.936;12.742;2022-10-14T00:29:34;9.70;64.30
36280;DHT22;22317;47.936;12.742;2022-10-14T00:32:00;9.60;64.60
36280;DHT22;22317;47.936;12.742;2022-10-14T00:34:25;9.60;64.50
36280;DHT22;22317;47.936;12.742;2022-10-14T00:36:52;9.60;65.50
36280;DHT22;22317;47.936;12.742;2022-10-14T00:39:19;9.60;65.70
36280;DHT22;22317;47.936;12.742;2022-10-14T00:41:45;9.60;65.90
36280;DHT22;22317;47.936;12.742;2022-10-14T00:46:43;9.60;66.00
36280;DHT22;22317;47.936;12.742;2022-10-14T00:49:29;9.60;66.30
36280;DHT22;22317;47.936;12.742;2022-10-14T00:52:05;9.60;66.50
36280;DHT22;22317;47.936;12.742;2022-10-14T00:54:35;9.50;66.50
36280;DHT22;22317;47.936;12.742;2022-10-14T00:57:03;9.50;66.70
36280;DHT22;22317;47.936;12.742;2022-10-14T00:59:29;9.50;66.80
36280;DHT22;22317;47.936;12.742;2022-10-14T01:01:55;9.50;66.60
36280;DHT22;22317;47.936;12.742;2022-10-14T01:04:21;9.50;67.10
36280;DHT22;22317;47.936;12.742;2022-10-14T01:14:36;9.60;67.20
36280;DHT22;22317;47.936;12.742;2022-10-14T01:17:12;9.70;67.30
36280;DHT22;22317;47.936;12.742;2022-10-14T01:22:35;9.70;67.80
36280;DHT22;22317;47.936;12.742;2022-10-14T01:28:18;9.70;67.80
36280;DHT22;22317;47.936;12.742;2022-10-14T01:30:57;9.70;67.90
36280;DHT22;22317;47.936;12.742;2022-10-14T01:33:26;9.70;67.80
36280;DHT22;22317;47.936;12.742;2022-10-14T01:38:52;9.70;67.90
36280;DHT22;22317;47.936;12.742;2022-10-14T01:41:44;9.70;68.10
36280;DHT22;22317;47.936;12.742;2022-10-14T01:44:11;9.70;68.10
36280;DHT22;22317;47.936;12.742;2022-10-14T01:46:40;9.80;68.10
36280;DHT22;22317;47.936;12.742;2022-10-14T01:49:14;9.80;68.10
36280;DHT22;22317;47.936;12.742;2022-10-14T01:51:48;9.90;68.20
36280;DHT22;22317;47.936;12.742;2022-10-14T01:54:19;9.90;68.20
36280;DHT22;22317;47.936;12.742;2022-10-14T01:56:48;9.90;68.10
36280;DHT22;22317;47.936;12.742;2022-10-14T01:59:17;10.00;68.00
36280;DHT22;22317;47.936;12.742;2022-10-14T02:01:44;10.00;67.90
36280;DHT22;22317;47.936;12.742;2022-10-14T02:04:16;10.10;67.90
36280;DHT22;22317;47.936;12.742;2022-10-14T02:06:46;10.00;67.80
36280;DHT22;22317;47.936;12.742;2022-10-14T02:09:21;10.10;67.70
36280;DHT22;22317;47.936;12.742;2022-10-14T02:17:18;10.10;67.70
36280;DHT22;22317;47.936;12.742;2022-10-14T02:20:00;10.10;67.30
36280;DHT22;22317;47.936;12.742;2022-10-14T02:22:42;10.10;68.00
36280;DHT22;22317;47.936;12.742;2022-10-14T02:25:18;10.20;67.90
36280;DHT22;22317;47.936;12.742;2022-10-14T02:27:46;10.20;67.70
36280;DHT22;22317;47.936;12.742;2022-10-14T02:30:15;10.20;67.60
36280;DHT22;22317;47.936;12.742;2022-10-14T02:32:42;10.30;67.60
36280;DHT22;22317;47.936;12.742;2022-10-14T02:35:13;10.30;67.50
36280;DHT22;22317;47.936;12.742;2022-10-14T02:37:40;10.30;67.50
36280;DHT22;22317;47.936;12.742;2022-10-14T02:40:12;10.30;67.50
36280;DHT22;22317;47.936;12.742;2022-10-14T02:42:38;10.40;67.60
36280;DHT22;22317;47.936;12.742;2022-10-14T02:45:05;10.40;67.50
36280;DHT22;22317;47.936;12.742;2022-10-14T02:47:32;10.40;67.50
36280;DHT22;22317;47.936;12.742;2022-10-14T02:49:58;10.40;66.90
36280;DHT22;22317;47.936;12.742;2022-10-14T02:52:24;10.50;67.50
36280;DHT22;22317;47.936;12.742;2022-10-14T02:54:51;10.50;67.50
36280;DHT22;22317;47.936;12.742;2022-10-14T02:57:17;10.50;67.40
36280;DHT22;22317;47.936;12.742;2022-10-14T02:59:43;10.50;66.90
36280;DHT22;22317;47.936;12.742;2022-10-14T03:02:09;10.50;67.50
36280;DHT22;22317;47.936;12.742;2022-10-14T03:04:38;10.50;67.40
36280;DHT22;22317;47.936;12.742;2022-10-14T03:07:04;10.60;67.40
36280;DHT22;22317;47.936;12.742;2022-10-14T03:09:33;10.50;67.40
36280;DHT22;22317;47.936;12.742;2022-10-14T03:11:59;10.50;67.40
36280;DHT22;22317;47.936;12.742;2022-10-14T03:14:24;10.60;67.40
36280;DHT22;22317;47.936;12.742;2022-10-14T03:16:51;10.60;67.50
36280;DHT22;22317;47.936;12.742;2022-10-14T03:19:21;10.60;67.40
36280;DHT22;22317;47.936;12.742;2022-10-14T03:21:49;10.60;67.30
36280;DHT22;22317;47.936;12.742;2022-10-14T03:24:18;10.60;67.30
36280;DHT22;22317;47.936;12.742;2022-10-14T03:26:47;10.60;67.30
36280;DHT22;22317;47.936;12.742;2022-10-14T03:29:14;10.50;66.70
36280;DHT22;22317;47.936;12.742;2022-10-14T03:32:03;10.50;66.70
36280;DHT22;22317;47.936;12.742;2022-10-14T03:34:34;10.50;67.20
36280;DHT22;22317;47.936;12.742;2022-10-14T03:37:04;10.50;67.20
36280;DHT22;22317;47.936;12.742;2022-10-14T03:39:33;10.50;67.20
36280;DHT22;22317;47.936;12.742;2022-10-14T03:42:04;10.50;67.10
36280;DHT22;22317;47.936;12.742;2022-10-14T03:44:39;10.50;67.20
36280;DHT22;22317;47.936;12.742;2022-10-14T03:47:29;10.50;67.10
36280;DHT22;22317;47.936;12.742;2022-10-14T03:49:55;10.50;66.70
36280;DHT22;22317;47.936;12.742;2022-10-14T03:52:26;10.40;67.10
36280;DHT22;22317;47.936;12.742;2022-10-14T03:55:02;10.40;67.30
36280;DHT22;22317;47.936;12.742;2022-10-14T03:57:28;10.40;67.30
36280;DHT22;22317;47.936;12.742;2022-10-14T03:59:57;10.40;66.70
36280;DHT22;22317;47.936;12.742;2022-10-14T04:02:28;10.40;67.20
36280;DHT22;22317;47.936;12.742;2022-10-14T04:04:56;10.40;67.20
36280;DHT22;22317;47.936;12.742;2022-10-14T04:07:22;10.30;67.30
36280;DHT22;22317;47.936;12.742;2022-10-14T04:09:52;10.30;66.80
36280;DHT22;22317;47.936;12.742;2022-10-14T04:12:18;10.40;67.50
36280;DHT22;22317;47.936;12.742;2022-10-14T04:14:56;10.30;67.30
36280;DHT22;22317;47.936;12.742;2022-10-14T04:17:25;10.30;67.30
36280;DHT22;22317;47.936;12.742;2022-10-14T04:19:53;10.30;66.90
36280;DHT22;22317;47.936;12.742;2022-10-14T04:22:19;10.30;67.50
36280;DHT22;22317;47.936;12.742;2022-10-14T04:24:51;10.30;67.50
36280;DHT22;22317;47.936;12.742;2022-10-14T04:27:17;10.30;67.50
36280;DHT22;22317;47.936;12.742;2022-10-14T04:29:47;10.30;66.80
36280;DHT22;22317;47.936;12.742;2022-10-14T04:32:20;10.30;67.30
36280;DHT22;22317;47.936;12.742;2022-10-14T04:34:45;10.40;66.70
36280;DHT22;22317;47.936;12.742;2022-10-14T04:37:15;10.40;67.10
36280;DHT22;22317;47.936;12.742;2022-10-14T04:40:01;10.40;66.60
36280;DHT22;22317;47.936;12.742;2022-10-14T04:42:29;10.40;67.10
36280;DHT22;22317;47.936;12.742;2022-10-14T04:45:00;10.40;67.10
36280;DHT22;22317;47.936;12.742;2022-10-14T04:47:38;10.40;67.10
36280;DHT22;22317;47.936;12.742;2022-10-14T04:50:05;10.50;66.50
36280;DHT22;22317;47.936;12.742;2022-10-14T04:52:31;10.40;67.10
36280;DHT22;22317;47.936;12.742;2022-10-14T04:55:06;10.40;66.90
36280;DHT22;22317;47.936;12.742;2022-10-14T04:57:39;10.40;66.90
36280;DHT22;22317;47.936;12.742;2022-10-14T05:00:10;10.40;66.80
36280;DHT22;22317;47.936;12.742;2022-10-14T05:02:48;10.40;66.80
36280;DHT22;22317;47.936;12.742;2022-10-14T05:05:13;10.40;66.80
36280;DHT22;22317;47.936;12.742;2022-10-14T05:07:42;10.40;66.80
36280;DHT22;22317;47.936;12.742;2022-10-14T05:10:20;10.30;66.70
36280;DHT22;22317;47.936;12.742;2022-10-14T05:12:46;10.20;66.60
36280;DHT22;22317;47.936;12.742;2022-10-14T05:15:13;10.20;66.70
36280;DHT22;22317;47.936;12.742;2022-10-14T05:17:47;10.20;66.70
36280;DHT22;22317;47.936;12.742;2022-10-14T05:20:16;10.10;66.80
36280;DHT22;22317;47.936;12.742;2022-10-14T05:22:46;10.10;67.00
36280;DHT22;22317;47.936;12.742;2022-10-14T05:25:13;10.10;67.00
36280;DHT22;22317;47.936;12.742;2022-10-14T05:27:39;10.10;67.10
36280;DHT22;22317;47.936;12.742;2022-10-14T05:30:05;10.00;66.50
36280;DHT22;22317;47.936;12.742;2022-10-14T05:32:35;10.00;67.00
36280;DHT22;22317;47.936;12.742;2022-10-14T05:35:04;9.90;67.10
36280;DHT22;22317;47.936;12.742;2022-10-14T05:37:35;10.00;67.30
36280;DHT22;22317;47.936;12.742;2022-10-14T05:40:00;9.90;66.90
36280;DHT22;22317;47.936;12.742;2022-10-14T05:42:26;9.90;67.50
36280;DHT22;22317;47.936;12.742;2022-10-14T05:44:55;9.90;67.50
36280;DHT22;22317;47.936;12.742;2022-10-14T05:47:22;9.90;67.70
36280;DHT22;22317;47.936;12.742;2022-10-14T05:49:53;9.90;67.10
36280;DHT22;22317;47.936;12.742;2022-10-14T05:52:18;10.00;67.70
36280;DHT22;22317;47.936;12.742;2022-10-14T05:54:44;10.00;67.70
36280;DHT22;22317;47.936;12.742;2022-10-14T05:57:13;10.00;67.70
36280;DHT22;22317;47.936;12.742;2022-10-14T05:59:38;10.00;67.60
36280;DHT22;22317;47.936;12.742;2022-10-14T06:02:04;9.90;67.00
36280;DHT22;22317;47.936;12.742;2022-10-14T06:04:33;9.90;67.70
36280;DHT22;22317;47.936;12.742;2022-10-14T06:06:58;9.90;67.80
36280;DHT22;22317;47.936;12.742;2022-10-14T06:09:24;10.00;67.90
36280;DHT22;22317;47.936;12.742;2022-10-14T06:11:51;10.00;67.90
36280;DHT22;22317;47.936;12.742;2022-10-14T06:14:17;10.00;68.00
36280;DHT22;22317;47.936;12.742;2022-10-14T06:16:47;10.00;68.00
36280;DHT22;22317;47.936;12.742;2022-10-14T06:19:13;10.00;68.00
36280;DHT22;22317;47.936;12.742;2022-10-14T06:21:39;10.10;68.00
36280;DHT22;22317;47.936;12.742;2022-10-14T06:24:05;10.10;68.00
36280;DHT22;22317;47.936;12.742;2022-10-14T06:26:30;10.10;68.00
36280;DHT22;22317;47.936;12.742;2022-10-14T06:28:57;10.10;68.00
36280;DHT22;22317;47.936;12.742;2022-10-14T06:31:22;10.20;67.50
36280;DHT22;22317;47.936;12.742;2022-10-14T06:33:48;10.20;67.50
36280;DHT22;22317;47.936;12.742;2022-10-14T06:36:14;10.20;68.00
36280;DHT22;22317;47.936;12.742;2022-10-14T06:38:39;10.20;67.80
36280;DHT22;22317;47.936;12.742;2022-10-14T06:41:05;10.30;67.90
36280;DHT22;22317;47.936;12.742;2022-10-14T06:43:31;10.30;67.90
36280;DHT22;22317;47.936;12.742;2022-10-14T06:45:57;10.30;67.90
36280;DHT22;22317;47.936;12.742;2022-10-14T06:48:23;10.30;67.90
36280;DHT22;22317;47.936;12.742;2022-10-14T06:50:49;10.40;67.40
36280;DHT22;22317;47.936;12.742;2022-10-14T06:53:15;10.40;68.00
36280;DHT22;22317;47.936;12.742;2022-10-14T06:55:41;10.40;67.80
36280;DHT22;22317;47.936;12.742;2022-10-14T06:58:06;10.40;67.80
36280;DHT22;22317;47.936;12.742;2022-10-14T07:00:32;10.50;67.90
36280;DHT22;22317;47.936;12.742;2022-10-14T07:02:58;10.60;67.90
36280;DHT22;22317;47.936;12.742;2022-10-14T07:05:24;10.60;68.00
36280;DHT22;22317;47.936;12.742;2022-10-14T07:07:50;10.70;67.90
36280;DHT22;22317;47.936;12.742;2022-10-14T07:10:16;10.80;67.80
36280;DHT22;22317;47.936;12.742;2022-10-14T07:12:42;10.90;67.70
36280;DHT22;22317;47.936;12.742;2022-10-14T07:15:08;10.90;67.60
36280;DHT22;22317;47.936;12.742;2022-10-14T07:17:34;11.00;67.50
36280;DHT22;22317;47.936;12.742;2022-10-14T07:20:00;11.10;66.90
36280;DHT22;22317;47.936;12.742;2022-10-14T07:22:25;11.10;67.50
36280;DHT22;22317;47.936;12.742;2022-10-14T07:24:51;11.20;67.50
36280;DHT22;22317;47.936;12.742;2022-10-14T07:27:17;11.30;67.50
36280;DHT22;22317;47.936;12.742;2022-10-14T07:29:45;11.50;67.00
36280;DHT22;22317;47.936;12.742;2022-10-14T07:32:11;11.50;67.60
36280;DHT22;22317;47.936;12.742;2022-10-14T07:34:36;11.60;67.70
36280;DHT22;22317;47.936;12.742;2022-10-14T07:37:02;11.80;68.00
36280;DHT22;22317;47.936;12.742;2022-10-14T07:39:28;12.00;68.00
36280;DHT22;22317;47.936;12.742;2022-10-14T07:41:54;12.10;67.80
36280;DHT22;22317;47.936;12.742;2022-10-14T07:44:20;12.20;67.50
36280;DHT22;22317;47.936;12.742;2022-10-14T07:46:46;12.30;67.30
36280;DHT22;22317;47.936;12.742;2022-10-14T07:49:13;12.40;67.10
36280;DHT22;22317;47.936;12.742;2022-10-14T07:51:40;12.50;67.10
36280;DHT22;22317;47.936;12.742;2022-10-14T07:54:08;12.60;67.10
36280;DHT22;22317;47.936;12.742;2022-10-14T07:56:38;12.80;67.40
36280;DHT22;22317;47.936;12.742;2022-10-14T07:59:05;13.00;67.60
36280;DHT22;22317;47.936;12.742;2022-10-14T08:01:31;13.20;67.30
36280;DHT22;22317;47.936;12.742;2022-10-14T08:03:57;13.40;67.10
36280;DHT22;22317;47.936;12.742;2022-10-14T08:06:23;13.60;66.70
36280;DHT22;22317;47.936;12.742;2022-10-14T08:08:49;13.70;66.30
36280;DHT22;22317;47.936;12.742;2022-10-14T08:11:18;13.80;66.10
36280;DHT22;22317;47.936;12.742;2022-10-14T08:13:44;13.80;65.90
36280;DHT22;22317;47.936;12.742;2022-10-14T08:16:17;13.90;65.70
36280;DHT22;22317;47.936;12.742;2022-10-14T08:18:44;14.00;65.60
36280;DHT22;22317;47.936;12.742;2022-10-14T08:21:10;14.10;64.80
36280;DHT22;22317;47.936;12.742;2022-10-14T08:23:36;14.10;65.30
36280;DHT22;22317;47.936;12.742;2022-10-14T08:26:02;14.10;65.10
36280;DHT22;22317;47.936;12.742;2022-10-14T08:28:28;14.20;65.30
36280;DHT22;22317;47.936;12.742;2022-10-14T08:30:54;14.30;65.30
36280;DHT22;22317;47.936;12.742;2022-10-14T08:33:20;14.40;64.90
36280;DHT22;22317;47.936;12.742;2022-10-14T08:35:46;14.50;64.60
36280;DHT22;22317;47.936;12.742;2022-10-14T08:38:11;14.60;64.20
36280;DHT22;22317;47.936;12.742;2022-10-14T08:43:36;14.80;63.20
36280;DHT22;22317;47.936;12.742;2022-10-14T08:46:20;15.00;63.20
36280;DHT22;22317;47.936;12.742;2022-10-14T08:48:48;15.20;62.70
36280;DHT22;22317;47.936;12.742;2022-10-14T08:51:17;15.30;62.30
36280;DHT22;22317;47.936;12.742;2022-10-14T08:53:59;15.40;61.50
36280;DHT22;22317;47.936;12.742;2022-10-14T08:56:30;15.60;61.30
36280;DHT22;22317;47.936;12.742;2022-10-14T08:59:02;15.70;61.70
36280;DHT22;22317;47.936;12.742;2022-10-14T09:01:33;15.90;61.70
36280;DHT22;22317;47.936;12.742;2022-10-14T09:04:04;16.00;61.50
36280;DHT22;22317;47.936;12.742;2022-10-14T09:06:35;16.20;61.30
36280;DHT22;22317;47.936;12.742;2022-10-14T09:09:29;16.30;60.90
36280;DHT22;22317;47.936;12.742;2022-10-14T09:12:03;16.40;60.50
36280;DHT22;22317;47.936;12.742;2022-10-14T09:14:36;16.50;60.30
36280;DHT22;22317;47.936;12.742;2022-10-14T09:17:28;16.50;60.10
36280;DHT22;22317;47.936;12.742;2022-10-14T09:20:15;16.70;59.90
36280;DHT22;22317;47.936;12.742;2022-10-14T09:22:41;16.80;60.20
36280;DHT22;22317;47.936;12.742;2022-10-14T09:25:14;17.10;60.30
36280;DHT22;22317;47.936;12.742;2022-10-14T09:27:41;17.30;59.60
36280;DHT22;22317;47.936;12.742;2022-10-14T09:30:14;17.50;59.30
36280;DHT22;22317;47.936;12.742;2022-10-14T09:32:47;17.70;58.50
36280;DHT22;22317;47.936;12.742;2022-10-14T09:35:46;17.90;58.00
36280;DHT22;22317;47.936;12.742;2022-10-14T09:38:14;18.00;57.10
36280;DHT22;22317;47.936;12.742;2022-10-14T09:40:43;18.00;57.10
36280;DHT22;22317;47.936;12.742;2022-10-14T09:48:45;18.60;55.30
36280;DHT22;22317;47.936;12.742;2022-10-14T09:53:44;19.00;54.40
36280;DHT22;22317;47.936;12.742;2022-10-14T09:56:12;19.20;54.00
36280;DHT22;22317;47.936;12.742;2022-10-14T09:58:44;19.30;53.60
36280;DHT22;22317;47.936;12.742;2022-10-14T10:01:22;19.50;53.00
36280;DHT22;22317;47.936;12.742;2022-10-14T10:03:50;19.60;52.40
36280;DHT22;22317;47.936;12.742;2022-10-14T10:06:19;19.80;52.60
36280;DHT22;22317;47.936;12.742;2022-10-14T10:11:32;20.00;51.50
36280;DHT22;22317;47.936;12.742;2022-10-14T10:14:29;20.10;51.00
36280;DHT22;22317;47.936;12.742;2022-10-14T10:24:45;20.60;50.00
36280;DHT22;22317;47.936;12.742;2022-10-14T10:27:26;20.70;50.20
36280;DHT22;22317;47.936;12.742;2022-10-14T10:29:52;20.90;49.40
36280;DHT22;22317;47.936;12.742;2022-10-14T10:32:35;20.90;49.50
36280;DHT22;22317;47.936;12.742;2022-10-14T10:43:34;21.40;47.50
36280;DHT22;22317;47.936;12.742;2022-10-14T10:46:20;21.50;47.60
36280;DHT22;22317;47.936;12.742;2022-10-14T10:51:48;21.70;46.00
36280;DHT22;22317;47.936;12.742;2022-10-14T10:54:51;21.80;46.00
36280;DHT22;22317;47.936;12.742;2022-10-14T11:00:17;22.10;45.50
36280;DHT22;22317;47.936;12.742;2022-10-14T11:02:54;22.30;45.30
36280;DHT22;22317;47.936;12.742;2022-10-14T11:14:40;22.90;43.50
36280;DHT22;22317;47.936;12.742;2022-10-14T11:44:42;24.70;39.40
36280;DHT22;22317;47.936;12.742;2022-10-14T11:47:28;25.10;39.70
36280;DHT22;22317;47.936;12.742;2022-10-14T11:50:01;26.10;39.40
36280;DHT22;22317;47.936;12.742;2022-10-14T11:52:40;26.10;38.50
36280;DHT22;22317;47.936;12.742;2022-10-14T11:55:25;26.70;37.20
36280;DHT22;22317;47.936;12.742;2022-10-14T11:57:56;27.30;35.90
36280;DHT22;22317;47.936;12.742;2022-10-14T12:03:53;28.30;34.80
36280;DHT22;22317;47.936;12.742;2022-10-14T12:06:05;28.80;34.40
36280;DHT22;22317;47.936;12.742;2022-10-14T12:09:28;29.50;33.30
36280;DHT22;22317;47.936;12.742;2022-10-14T12:11:58;30.00;32.00
36280;DHT22;22317;47.936;12.742;2022-10-14T12:14:42;30.40;31.10
36280;DHT22;22317;47.936;12.742;2022-10-14T12:23:02;32.10;29.50
36280;DHT22;22317;47.936;12.742;2022-10-14T12:25:38;32.30;29.20
36280;DHT22;22317;47.936;12.742;2022-10-14T12:28:06;32.30;28.40
36280;DHT22;22317;47.936;12.742;2022-10-14T12:38:19;33.30;27.20
36280;DHT22;22317;47.936;12.742;2022-10-14T12:40:46;33.60;27.10
36280;DHT22;22317;47.936;12.742;2022-10-14T12:43:25;33.70;26.60
36280;DHT22;22317;47.936;12.742;2022-10-14T12:46:08;33.60;26.30
36280;DHT22;22317;47.936;12.742;2022-10-14T12:48:36;33.40;25.80
36280;DHT22;22317;47.936;12.742;2022-10-14T12:53:36;33.10;25.90
36280;DHT22;22317;47.936;12.742;2022-10-14T12:56:04;33.00;26.10
36280;DHT22;22317;47.936;12.742;2022-10-14T12:58:37;33.00;26.10
36280;DHT22;22317;47.936;12.742;2022-10-14T13:01:19;33.00;26.00
36280;DHT22;22317;47.936;12.742;2022-10-14T13:03:57;33.10;25.70
36280;DHT22;22317;47.936;12.742;2022-10-14T13:06:31;33.00;25.40
36280;DHT22;22317;47.936;12.742;2022-10-14T13:11:42;32.90;25.70
36280;DHT22;22317;47.936;12.742;2022-10-14T13:14:29;32.90;26.00
36280;DHT22;22317;47.936;12.742;2022-10-14T13:17:26;32.90;25.40
36280;DHT22;22317;47.936;12.742;2022-10-14T13:19:49;32.60;25.80
36280;DHT22;22317;47.936;12.742;2022-10-14T13:25:05;32.40;25.60
36280;DHT22;22317;47.936;12.742;2022-10-14T13:30:53;31.80;25.80
36280;DHT22;22317;47.936;12.742;2022-10-14T13:33:38;31.60;25.70
36280;DHT22;22317;47.936;12.742;2022-10-14T13:36:28;31.50;26.00
36280;DHT22;22317;47.936;12.742;2022-10-14T13:38:57;31.20;26.10
36280;DHT22;22317;47.936;12.742;2022-10-14T13:41:24;30.90;26.10
36280;DHT22;22317;47.936;12.742;2022-10-14T13:43:57;30.60;26.20
36280;DHT22;22317;47.936;12.742;2022-10-14T13:46:28;30.30;26.20
36280;DHT22;22317;47.936;12.742;2022-10-14T13:48:58;29.80;26.30
36280;DHT22;22317;47.936;12.742;2022-10-14T13:53:54;28.90;26.80
36280;DHT22;22317;47.936;12.742;2022-10-14T13:56:26;28.40;27.50
36280;DHT22;22317;47.936;12.742;2022-10-14T14:01:31;27.40;27.30
36280;DHT22;22317;47.936;12.742;2022-10-14T14:03:59;26.50;27.90
36280;DHT22;22317;47.936;12.742;2022-10-14T14:06:26;26.10;28.30
36280;DHT22;22317;47.936;12.742;2022-10-14T14:11:26;25.30;28.90
36280;DHT22;22317;47.936;12.742;2022-10-14T14:14:06;24.90;29.10
36280;DHT22;22317;47.936;12.742;2022-10-14T14:16:57;24.40;29.50
36280;DHT22;22317;47.936;12.742;2022-10-14T14:19:32;23.90;29.80
36280;DHT22;22317;47.936;12.742;2022-10-14T14:22:28;23.50;30.10
36280;DHT22;22317;47.936;12.742;2022-10-14T14:25:11;23.10;30.60
36280;DHT22;22317;47.936;12.742;2022-10-14T14:27:55;22.60;31.20
36280;DHT22;22317;47.936;12.742;2022-10-14T14:30:35;22.30;32.00
36280;DHT22;22317;47.936;12.742;2022-10-14T14:33:05;21.90;32.50
36280;DHT22;22317;47.936;12.742;2022-10-14T14:40:28;21.00;34.10
36280;DHT22;22317;47.936;12.742;2022-10-14T14:42:59;20.70;34.50
36280;DHT22;22317;47.936;12.742;2022-10-14T14:45:34;20.50;34.80
36280;DHT22;22317;47.936;12.742;2022-10-14T14:48:05;20.30;35.20
36280;DHT22;22317;47.936;12.742;2022-10-14T14:50:37;20.00;35.60
36280;DHT22;22317;47.936;12.742;2022-10-14T14:53:10;20.00;36.20
36280;DHT22;22317;47.936;12.742;2022-10-14T14:55:42;19.80;37.00
36280;DHT22;22317;47.936;12.742;2022-10-14T14:58:44;19.60;37.40
36280;DHT22;22317;47.936;12.742;2022-10-14T15:01:27;19.30;37.40
36280;DHT22;22317;47.936;12.742;2022-10-14T15:04:16;19.20;38.70
36280;DHT22;22317;47.936;12.742;2022-10-14T15:06:48;19.00;39.20
36280;DHT22;22317;47.936;12.742;2022-10-14T15:09:20;18.80;38.80
36280;DHT22;22317;47.936;12.742;2022-10-14T15:11:55;18.60;39.50
36280;DHT22;22317;47.936;12.742;2022-10-14T15:14:47;18.50;40.10
36280;DHT22;22317;47.936;12.742;2022-10-14T15:17:42;18.40;40.70
36280;DHT22;22317;47.936;12.742;2022-10-14T15:22:37;18.00;40.90
36280;DHT22;22317;47.936;12.742;2022-10-14T15:30:27;17.60;41.50
36280;DHT22;22317;47.936;12.742;2022-10-14T15:33:18;17.60;42.70
36280;DHT22;22317;47.936;12.742;2022-10-14T15:35:57;17.50;43.00
36280;DHT22;22317;47.936;12.742;2022-10-14T15:38:24;17.30;43.00
36280;DHT22;22317;47.936;12.742;2022-10-14T15:40:50;17.20;43.20
36280;DHT22;22317;47.936;12.742;2022-10-14T15:43:25;17.00;43.40
36280;DHT22;22317;47.936;12.742;2022-10-14T15:45:55;16.80;44.10
36280;DHT22;22317;47.936;12.742;2022-10-14T15:48:49;16.70;44.40
36280;DHT22;22317;47.936;12.742;2022-10-14T15:51:19;16.50;45.10
36280;DHT22;22317;47.936;12.742;2022-10-14T15:53:46;16.40;45.20
36280;DHT22;22317;47.936;12.742;2022-10-14T15:56:12;16.30;46.20
36280;DHT22;22317;47.936;12.742;2022-10-14T15:58:37;16.20;46.30
36280;DHT22;22317;47.936;12.742;2022-10-14T16:01:04;16.10;47.50
36280;DHT22;22317;47.936;12.742;2022-10-14T16:03:31;16.00;47.50
36280;DHT22;22317;47.936;12.742;2022-10-14T16:05:58;15.90;47.70
36280;DHT22;22317;47.936;12.742;2022-10-14T16:08:24;15.80;47.90
36280;DHT22;22317;47.936;12.742;2022-10-14T16:10:50;15.70;47.60
36280;DHT22;22317;47.936;12.742;2022-10-14T16:13:18;15.70;48.90
36280;DHT22;22317;47.936;12.742;2022-10-14T16:15:56;15.80;55.30
36280;DHT22;22317;47.936;12.742;2022-10-14T16:18:23;15.70;54.50
36280;DHT22;22317;47.936;12.742;2022-10-14T16:20:55;15.20;49.00
36280;DHT22;22317;47.936;12.742;2022-10-14T16:23:22;15.20;49.50
36280;DHT22;22317;47.936;12.742;2022-10-14T16:25:53;15.10;49.90
36280;DHT22;22317;47.936;12.742;2022-10-14T16:28:19;15.00;50.20
36280;DHT22;22317;47.936;12.742;2022-10-14T16:30:47;14.90;50.30
36280;DHT22;22317;47.936;12.742;2022-10-14T16:33:18;14.90;50.70
36280;DHT22;22317;47.936;12.742;2022-10-14T16:35:48;14.80;50.60
36280;DHT22;22317;47.936;12.742;2022-10-14T16:38:15;14.80;51.20
36280;DHT22;22317;47.936;12.742;2022-10-14T16:40:41;14.70;51.10
36280;DHT22;22317;47.936;12.742;2022-10-14T16:43:07;14.60;51.60
36280;DHT22;22317;47.936;12.742;2022-10-14T16:45:33;14.60;51.90
36280;DHT22;22317;47.936;12.742;2022-10-14T16:47:59;14.40;51.50
36280;DHT22;22317;47.936;12.742;2022-10-14T16:50:25;14.40;51.80
36280;DHT22;22317;47.936;12.742;2022-10-14T16:52:51;14.40;52.40
36280;DHT22;22317;47.936;12.742;2022-10-14T16:55:35;14.40;52.50
36280;DHT22;22317;47.936;12.742;2022-10-14T16:58:01;14.30;52.60
36280;DHT22;22317;47.936;12.742;2022-10-14T17:00:27;14.20;52.50
36280;DHT22;22317;47.936;12.742;2022-10-14T17:02:52;14.20;53.10
36280;DHT22;22317;47.936;12.742;2022-10-14T17:05:20;14.20;53.30
36280;DHT22;22317;47.936;12.742;2022-10-14T17:07:46;11.90;52.20
36280;DHT22;22317;47.936;12.742;2022-10-14T17:10:12;14.10;53.10
36280;DHT22;22317;47.936;12.742;2022-10-14T17:12:38;14.00;53.70
36280;DHT22;22317;47.936;12.742;2022-10-14T17:15:04;14.00;54.50
36280;DHT22;22317;47.936;12.742;2022-10-14T17:17:31;13.90;54.00
36280;DHT22;22317;47.936;12.742;2022-10-14T17:19:56;13.90;53.80
36280;DHT22;22317;47.936;12.742;2022-10-14T17:22:22;13.90;54.40
36280;DHT22;22317;47.936;12.742;2022-10-14T17:24:48;13.80;54.50
36280;DHT22;22317;47.936;12.742;2022-10-14T17:27:15;13.80;54.60
36280;DHT22;22317;47.936;12.742;2022-10-14T17:29:45;13.70;54.40
36280;DHT22;22317;47.936;12.742;2022-10-14T17:32:11;13.70;55.00
36280;DHT22;22317;47.936;12.742;2022-10-14T17:34:36;13.60;55.10
36280;DHT22;22317;47.936;12.742;2022-10-14T17:37:02;13.60;55.30
36280;DHT22;22317;47.936;12.742;2022-10-14T17:39:29;13.50;55.50
36280;DHT22;22317;47.936;12.742;2022-10-14T17:41:55;13.50;55.80
36280;DHT22;22317;47.936;12.742;2022-10-14T17:44:22;13.40;56.00
36280;DHT22;22317;47.936;12.742;2022-10-14T17:46:47;13.40;56.10
36280;DHT22;22317;47.936;12.742;2022-10-14T17:49:13;13.30;56.20
36280;DHT22;22317;47.936;12.742;2022-10-14T17:51:40;13.30;57.00
36280;DHT22;22317;47.936;12.742;2022-10-14T17:54:08;13.30;56.60
36280;DHT22;22317;47.936;12.742;2022-10-14T17:56:35;13.30;56.70
36280;DHT22;22317;47.936;12.742;2022-10-14T17:59:05;13.30;56.80
36280;DHT22;22317;47.936;12.742;2022-10-14T18:01:31;13.30;56.70
36280;DHT22;22317;47.936;12.742;2022-10-14T18:03:58;13.30;57.00